x

Smith Island, Wa (sisw1) Weather Station

12:00 - Tue 17th Jan 2017 All times are PST. -8 hours from GMT.

  • Wind
    39mph, 44mph gusts
  • Luft Temp 51°f
  • Sea Pressure 1002.8mb
  • Smith Island, Wa
  • Smith Island, Wa

More Historic Weather Station data

Upgrade to MSW Pro to gain access to the past 30 days of data for over 8000 Wavebouys and Weather Stations around the globe.

Join Pro

Comparision Forecast

View Surf forecast
   
Di 01/17 12:00 39 44 mph 1002.8mb 51f
11:00 38 41 mph 1002.8mb 51f
10:00 40 49 mph 1002.2mb 50f
9:00 48 57 mph 1001.8mb 49f
8:00 49 55 mph 1002mb 50f
7:00 49 53 mph 1003.1mb 48f
6:00 44 51 mph 1004.6mb 47f
5:00 36 40 mph 1005.7mb 48f
4:00 9 10 mph 1007.9mb 44f
3:00 3
mph
1009.4mb 44f
2:00 8
mph
1009.5mb 46f
1:00 17 23 mph 1009.6mb 48f
12:00 28 31 mph 1009.5mb 49f
Mo 01/16 11:00 16 17 mph 1010.8mb 47f
10:00 24 26 mph 1011.7mb 46f
9:00 5
mph
1013.5mb 44f
8:00 17 20 mph 1013.2mb 44f
7:00 9 10 mph 1014.4mb 45f
6:00 6
mph
1014.4mb 45f
5:00 9 10 mph 1013.6mb 45f
4:00 10 11 mph 1014.9mb 47f
3:00 6 7 mph 1015.3mb 46f
2:00 10 13 mph 1016.2mb 46f
1:00 15 16 mph 1017.2mb 45f
12:00 10 13 mph 1019.1mb 44f
11:00 20 21 mph 1019.7mb 41f
10:00 14 15 mph 1020.7mb 40f
9:00 14 17 mph 1021.1mb 39f
8:00 9 10 mph 1021.9mb 39f
7:00 11
mph
1021.9mb 39f
6:00 5
mph
1023.1mb 39f
5:00 10 11 mph 1022.9mb 39f
4:00 10 11 mph 1023.1mb 39f
3:00 6 7 mph 1024.3mb 39f
2:00 5 6 mph 1024.6mb 39f
1:00 9
mph
1024.7mb 39f
12:00 5 6 mph 1025.1mb 40f
So 01/15 11:00 5 6 mph 1025.7mb 39f
10:00 6 7 mph 1026mb 40f
9:00 8 9 mph 1025.6mb 40f
8:00 8 9 mph 1025.7mb 39f
7:00 8
mph
1025.4mb 39f
6:00 8 9 mph 1025.4mb 39f
5:00 3
mph
1025.8mb 40f
4:00  -  mph 1026.1mb 40f
3:00 1 2 mph 1025.7mb 41f
2:00 3 5 mph 1025.5mb 40f
1:00 2 3 mph 1025.3mb 40f
12:00 2 3 mph 1025.9mb 39f
11:00 5 6 mph 1026.6mb 38f
10:00 6 8 mph 1026.3mb 38f
9:00 7 8 mph 1025.6mb 37f
8:00 6 7 mph 1025.5mb 35f
7:00 7 8 mph 1025.5mb 36f
6:00 6 7 mph 1025.9mb 36f
5:00 6
mph
1025.9mb 36f
4:00 3
mph
1026.2mb 37f
3:00 3 5 mph 1026.4mb 38f
2:00 2 3 mph 1026.2mb 38f
1:00  -  1 mph 1025.7mb 38f
12:00 3 5 mph 1025.8mb 38f
Sa 01/14 11:00 2 3 mph 1025.4mb 38f
10:00 2
mph
1025.4mb 38f
9:00 8 10 mph 1025.7mb 37f
8:00 10 11 mph 1025.4mb 37f
7:00 7
mph
1025.4mb 37f
6:00 6 7 mph 1025.3mb 37f
5:00 6 7 mph 1025.7mb 37f
4:00  -  1 mph 1026.6mb 38f
3:00 2 3 mph 1026.9mb 38f
2:00 2 3 mph 1027.1mb 38f
1:00 3 5 mph 1027.8mb 38f
12:00 5 6 mph 1028.4mb 37f
11:00 6 7 mph 1029mb 36f
10:00 5 6 mph 1029.5mb 35f
9:00 5 6 mph 1029.7mb 33f
8:00 10 11 mph 1029.6mb 33f
7:00 7 8 mph 1029.9mb 33f
6:00 5 6 mph 1030.5mb 34f
5:00 3
mph
1030.5mb 34f
4:00 8 9 mph 1030.7mb 33f
3:00 7 9 mph 1030.7mb 35f
2:00 6 7 mph 1030.8mb 35f
1:00 8 9 mph 1031mb 35f
12:00 6 7 mph 1030.7mb 35f
Fr 01/13 11:00 8
mph
1030.9mb 35f
10:00 6 7 mph 1031.1mb 35f